Time;durP1;ratioP1;P1;durP2;ratioP2;P2;SDS_P1;SDS_P2;PMS_P1;PMS_P2;Temp;Humidity;BMP_temperature;BMP_pressure;BME280_temperature;BME280_humidity;BME280_pressure;Samples;Min_cycle;Max_cycle;Signal;HPM_P1;HPM_P2
2022/01/18 00:00:36;;;;;;;33.95;16.52;;;;;;;;;;6271650;22;20034;-64
2022/01/18 00:03:02;;;;;;;29.65;15.80;;;;;;;;;;6275072;22;20462;-64
2022/01/18 00:05:28;;;;;;;29.70;15.57;;;;;;;;;;6270959;22;20094;-63
2022/01/18 00:07:55;;;;;;;29.67;16.60;;;;;;;;;;6270741;22;20011;-64
2022/01/18 00:10:23;;;;;;;25.20;15.60;;;;;;;;;;6270385;22;20075;-64
2022/01/18 00:15:39;;;;;;;30.52;15.38;;;;;;;;;;6281176;22;20051;-64
2022/01/18 00:18:09;;;;;;;22.60;14.70;;;;;;;;;;6272196;22;20373;-64
2022/01/18 00:23:11;;;;;;;24.90;15.63;;;;;;;;;;6282101;22;20007;-63
2022/01/18 00:25:41;;;;;;;23.75;16.48;;;;;;;;;;6271997;22;20004;-64
2022/01/18 00:28:07;;;;;;;32.85;17.13;;;;;;;;;;6272121;22;20086;-64
2022/01/18 00:31:01;;;;;;;32.10;16.67;;;;;;;;;;6271772;22;20007;-63
2022/01/18 00:33:49;;;;;;;24.55;15.75;;;;;;;;;;6272974;22;20028;-63
2022/01/18 00:36:22;;;;;;;29.38;17.27;;;;;;;;;;6273288;22;20012;-64
2022/01/18 00:38:48;;;;;;;29.67;16.58;;;;;;;;;;6273625;22;20073;-63
2022/01/18 00:41:18;;;;;;;30.95;16.67;;;;;;;;;;6273075;22;20071;-64
2022/01/18 00:43:44;;;;;;;28.38;15.20;;;;;;;;;;6273860;22;20004;-64
2022/01/18 00:46:12;;;;;;;31.92;15.80;;;;;;;;;;6272217;22;20008;-63
2022/01/18 00:48:38;;;;;;;28.92;16.00;;;;;;;;;;6272995;22;20004;-63
2022/01/18 00:51:08;;;;;;;27.67;15.82;;;;;;;;;;6272979;22;20464;-63
2022/01/18 00:53:36;;;;;;;28.20;16.52;;;;;;;;;;6273155;22;20007;-63
2022/01/18 00:58:42;;;;;;;21.80;14.43;;;;;;;;;;6283471;22;20004;-63
2022/01/18 01:01:09;;;;;;;26.98;15.23;;;;;;;;;;6272899;22;20419;-63
2022/01/18 01:03:35;;;;;;;22.60;15.35;;;;;;;;;;6272673;22;20393;-64
2022/01/18 01:06:02;;;;;;;28.85;14.63;;;;;;;;;;6273253;22;20074;-63
2022/01/18 01:08:29;;;;;;;20.83;14.80;;;;;;;;;;6273114;22;20446;-63
2022/01/18 01:10:55;;;;;;;27.67;15.30;;;;;;;;;;6273544;22;19999;-64
2022/01/18 01:13:21;;;;;;;28.15;14.55;;;;;;;;;;6272616;22;20003;-63
2022/01/18 01:34:38;;;;;;;21.30;12.70;;;;;;;;;;6272652;22;20461;-64
2022/01/18 01:44:58;;;;;;;22.50;12.18;;;;;;;;;;6282451;22;20007;-63
2022/01/18 01:47:34;;;;;;;21.15;10.50;;;;;;;;;;6273996;22;20359;-63
2022/01/18 01:50:00;;;;;;;19.42;10.68;;;;;;;;;;6271895;22;20042;-63
2022/01/18 01:52:27;;;;;;;16.95;10.52;;;;;;;;;;6273530;22;20006;-63
2022/01/18 01:54:56;;;;;;;20.08;10.50;;;;;;;;;;6274741;22;20067;-64
2022/01/18 01:57:22;;;;;;;15.32;9.65;;;;;;;;;;6274079;22;20369;-63
2022/01/18 01:59:49;;;;;;;15.07;9.60;;;;;;;;;;6272792;22;20065;-63
2022/01/18 02:02:15;;;;;;;24.52;10.38;;;;;;;;;;6272806;22;20000;-63
2022/01/18 02:04:41;;;;;;;21.17;10.48;;;;;;;;;;6272525;22;20003;-63
2022/01/18 02:07:07;;;;;;;21.15;10.57;;;;;;;;;;6273863;22;20008;-63
2022/01/18 02:09:34;;;;;;;18.40;11.15;;;;;;;;;;6271418;22;20000;-64
2022/01/18 02:12:01;;;;;;;17.73;11.90;;;;;;;;;;6272180;22;20434;-63
2022/01/18 02:14:28;;;;;;;20.60;10.57;;;;;;;;;;6272646;22;19999;-63
2022/01/18 02:22:24;;;;;;;14.98;9.10;;;;;;;;;;6273252;22;20096;-63
2022/01/18 02:24:51;;;;;;;14.20;9.38;;;;;;;;;;6273854;22;20007;-63
2022/01/18 02:27:17;;;;;;;12.70;10.15;;;;;;;;;;6272725;22;20466;-64
2022/01/18 02:29:43;;;;;;;17.48;10.50;;;;;;;;;;6279591;22;20011;-70
2022/01/18 02:32:09;;;;;;;21.35;12.80;;;;;;;;;;6278950;22;20045;-63
2022/01/18 02:34:35;;;;;;;17.20;10.50;;;;;;;;;;6273569;22;20057;-64
2022/01/18 02:37:04;;;;;;;22.25;11.70;;;;;;;;;;6270812;22;20362;-63
2022/01/18 02:39:30;;;;;;;18.02;11.80;;;;;;;;;;6272656;22;20004;-64
2022/01/18 02:41:57;;;;;;;18.67;10.85;;;;;;;;;;6272408;22;19999;-63
2022/01/18 02:44:23;;;;;;;19.75;11.45;;;;;;;;;;6271656;22;20000;-64
2022/01/18 02:46:49;;;;;;;21.95;11.00;;;;;;;;;;6273464;22;20011;-63
2022/01/18 02:49:15;;;;;;;18.60;10.65;;;;;;;;;;6272861;22;20007;-63
2022/01/18 02:51:41;;;;;;;20.42;10.38;;;;;;;;;;6272625;22;20030;-64
2022/01/18 02:54:12;;;;;;;16.15;10.32;;;;;;;;;;6273502;22;20007;-63
2022/01/18 02:56:56;;;;;;;20.38;10.93;;;;;;;;;;6273209;22;20013;-63
2022/01/18 02:59:45;;;;;;;17.65;9.60;;;;;;;;;;6273729;22;20383;-63
2022/01/18 03:05:01;;;;;;;14.23;8.82;;;;;;;;;;6273316;22;20061;-63
2022/01/18 03:07:28;;;;;;;13.05;8.23;;;;;;;;;;6271864;22;20087;-63
2022/01/18 03:09:54;;;;;;;18.20;9.20;;;;;;;;;;6273107;22;20413;-63
2022/01/18 03:12:20;;;;;;;14.98;8.55;;;;;;;;;;6271988;22;20007;-64
2022/01/18 03:14:46;;;;;;;15.70;9.02;;;;;;;;;;6272584;22;20462;-63
2022/01/18 03:17:12;;;;;;;20.23;10.00;;;;;;;;;;6272659;22;20002;-64
2022/01/18 03:19:41;;;;;;;14.38;9.13;;;;;;;;;;6272562;22;20046;-63
2022/01/18 03:22:07;;;;;;;17.08;8.27;;;;;;;;;;6272759;22;19999;-63
2022/01/18 03:24:47;;;;;;;21.25;10.00;;;;;;;;;;6273120;22;20010;-63
2022/01/18 03:29:59;;;;;;;20.17;7.93;;;;;;;;;;6273206;22;20019;-64
2022/01/18 03:32:25;;;;;;;16.67;8.30;;;;;;;;;;6272724;22;20319;-64
2022/01/18 03:34:51;;;;;;;13.95;7.93;;;;;;;;;;6271795;22;20008;-63
2022/01/18 03:37:17;;;;;;;13.73;9.98;;;;;;;;;;6272842;22;20011;-64
2022/01/18 03:39:44;;;;;;;16.23;8.68;;;;;;;;;;6271042;22;20299;-64
2022/01/18 03:44:57;;;;;;;17.48;9.02;;;;;;;;;;6271106;22;20018;-63
2022/01/18 03:47:24;;;;;;;17.48;9.30;;;;;;;;;;6272639;22;20000;-63
2022/01/18 03:49:51;;;;;;;14.20;9.00;;;;;;;;;;6269961;22;20070;-63
2022/01/18 03:52:17;;;;;;;14.60;9.95;;;;;;;;;;6272406;22;20007;-64
2022/01/18 03:54:47;;;;;;;20.33;11.63;;;;;;;;;;6271632;22;20010;-63
2022/01/18 03:57:13;;;;;;;20.10;10.82;;;;;;;;;;6272766;22;20342;-64
2022/01/18 03:59:39;;;;;;;17.63;10.52;;;;;;;;;;6271478;22;20072;-63
2022/01/18 04:02:07;;;;;;;14.27;9.18;;;;;;;;;;6273124;22;20011;-63
2022/01/18 04:04:33;;;;;;;17.65;9.70;;;;;;;;;;6271705;22;20042;-63
2022/01/18 04:06:59;;;;;;;19.75;10.57;;;;;;;;;;6271938;22;20012;-63
2022/01/18 04:09:25;;;;;;;16.40;9.65;;;;;;;;;;6273289;22;20070;-64
2022/01/18 04:11:52;;;;;;;19.60;9.52;;;;;;;;;;6273629;22;20319;-63
2022/01/18 04:14:18;;;;;;;14.80;8.45;;;;;;;;;;6273681;22;20015;-63
2022/01/18 04:16:59;;;;;;;24.05;8.95;;;;;;;;;;6273630;22;20000;-64
2022/01/18 04:27:41;;;;;;;15.05;9.60;;;;;;;;;;6272892;22;20021;-64
2022/01/18 04:30:07;;;;;;;17.98;10.73;;;;;;;;;;6275928;22;20040;-62
2022/01/18 04:32:33;;;;;;;16.27;10.23;;;;;;;;;;6273420;22;20018;-64
2022/01/18 04:34:59;;;;;;;15.25;10.82;;;;;;;;;;6270487;22;20015;-64
2022/01/18 04:37:25;;;;;;;20.80;10.57;;;;;;;;;;6272656;22;20000;-64
2022/01/18 04:39:52;;;;;;;15.05;9.20;;;;;;;;;;6272938;22;20052;-64
2022/01/18 04:42:42;;;;;;;20.88;10.23;;;;;;;;;;6272883;22;20038;-63
2022/01/18 04:50:33;;;;;;;14.02;9.18;;;;;;;;;;6273281;22;20015;-64
2022/01/18 04:52:59;;;;;;;16.63;10.45;;;;;;;;;;6272518;22;20522;-63
2022/01/18 04:55:31;;;;;;;16.65;9.75;;;;;;;;;;6277700;22;20003;-64
2022/01/18 04:57:57;;;;;;;15.63;9.80;;;;;;;;;;6272570;22;20004;-63
2022/01/18 05:00:24;;;;;;;17.95;9.07;;;;;;;;;;6274215;22;20030;-63
2022/01/18 05:02:50;;;;;;;20.83;10.27;;;;;;;;;;6272748;22;20000;-63
2022/01/18 05:05:25;;;;;;;18.02;9.85;;;;;;;;;;6274044;22;20008;-64
2022/01/18 05:07:53;;;;;;;18.85;9.02;;;;;;;;;;6274921;22;20030;-62
2022/01/18 05:10:26;;;;;;;16.55;9.85;;;;;;;;;;6275479;22;20373;-63
2022/01/18 05:12:54;;;;;;;16.10;8.35;;;;;;;;;;6274199;22;20006;-63
2022/01/18 05:15:37;;;;;;;13.93;8.30;;;;;;;;;;6272891;22;20007;-64
2022/01/18 05:20:56;;;;;;;11.43;7.95;;;;;;;;;;6275313;22;20008;-63
2022/01/18 05:23:22;;;;;;;13.38;7.75;;;;;;;;;;6272883;22;20089;-63
2022/01/18 05:25:49;;;;;;;16.27;8.43;;;;;;;;;;6272505;22;20015;-63
2022/01/18 05:28:15;;;;;;;19.25;8.57;;;;;;;;;;6272384;22;20057;-64
2022/01/18 05:30:41;;;;;;;14.35;7.70;;;;;;;;;;6279716;22;20004;-63
2022/01/18 05:33:07;;;;;;;16.48;8.25;;;;;;;;;;6276072;22;20058;-63
2022/01/18 05:35:34;;;;;;;15.43;8.32;;;;;;;;;;6272666;22;20007;-63
2022/01/18 05:38:00;;;;;;;15.50;7.78;;;;;;;;;;6272544;22;20000;-63
2022/01/18 05:40:27;;;;;;;13.07;8.05;;;;;;;;;;6272963;22;20000;-63
2022/01/18 05:42:53;;;;;;;15.52;8.65;;;;;;;;;;6272392;22;20026;-63
2022/01/18 05:45:19;;;;;;;17.67;8.38;;;;;;;;;;6272641;22;20223;-64
2022/01/18 05:47:46;;;;;;;13.13;8.32;;;;;;;;;;6273539;22;20429;-63
2022/01/18 05:50:12;;;;;;;16.65;8.13;;;;;;;;;;6270415;22;20027;-64
2022/01/18 05:52:39;;;;;;;13.55;8.13;;;;;;;;;;6273820;22;20003;-64
2022/01/18 05:55:05;;;;;;;15.63;9.40;;;;;;;;;;6272620;22;20000;-64
2022/01/18 05:57:32;;;;;;;14.63;8.65;;;;;;;;;;6272898;22;20004;-63
2022/01/18 06:00:04;;;;;;;12.18;7.80;;;;;;;;;;6272767;22;20003;-63
2022/01/18 06:02:48;;;;;;;14.00;8.80;;;;;;;;;;6273227;22;20033;-63
2022/01/18 06:07:59;;;;;;;16.20;7.80;;;;;;;;;;6273963;22;20093;-63
2022/01/18 06:10:25;;;;;;;17.05;8.70;;;;;;;;;;6272468;22;20492;-64
2022/01/18 06:12:52;;;;;;;13.60;8.20;;;;;;;;;;6273507;22;20000;-63
2022/01/18 06:15:18;;;;;;;14.88;8.50;;;;;;;;;;6271674;22;20053;-63
2022/01/18 06:17:45;;;;;;;17.75;9.30;;;;;;;;;;6273870;22;20004;-64
2022/01/18 06:20:11;;;;;;;20.45;9.93;;;;;;;;;;6271992;22;20011;-64
2022/01/18 06:22:38;;;;;;;14.80;7.95;;;;;;;;;;6272663;22;20050;-64
2022/01/18 06:25:04;;;;;;;18.98;11.00;;;;;;;;;;6272004;22;20008;-64
2022/01/18 06:27:31;;;;;;;22.75;9.50;;;;;;;;;;6272693;22;20051;-63
2022/01/18 06:29:58;;;;;;;14.90;8.65;;;;;;;;;;6275047;22;20446;-63
2022/01/18 06:32:27;;;;;;;16.73;7.80;;;;;;;;;;6272539;22;20016;-63
2022/01/18 06:34:54;;;;;;;21.77;8.73;;;;;;;;;;6271803;22;20349;-64
2022/01/18 06:37:20;;;;;;;10.80;8.30;;;;;;;;;;6272766;22;20003;-63
2022/01/18 06:39:47;;;;;;;15.80;8.15;;;;;;;;;;6273089;22;20306;-63
2022/01/18 06:42:14;;;;;;;15.60;7.55;;;;;;;;;;6272800;22;20000;-64
2022/01/18 06:44:40;;;;;;;14.40;7.10;;;;;;;;;;6272194;22;20452;-63
2022/01/18 06:47:06;;;;;;;12.82;7.55;;;;;;;;;;6272647;22;20015;-64
2022/01/18 06:49:32;;;;;;;12.88;7.20;;;;;;;;;;6271291;22;20088;-64
2022/01/18 06:51:59;;;;;;;13.90;5.72;;;;;;;;;;6276454;22;20003;-64
2022/01/18 06:54:25;;;;;;;13.27;6.30;;;;;;;;;;6273612;22;20454;-64
2022/01/18 06:56:51;;;;;;;11.73;5.88;;;;;;;;;;6271562;22;20025;-63
2022/01/18 06:59:18;;;;;;;11.25;5.72;;;;;;;;;;6271518;22;20000;-64
2022/01/18 07:01:44;;;;;;;13.90;5.38;;;;;;;;;;6271813;22;20457;-64
2022/01/18 07:04:11;;;;;;;15.23;5.78;;;;;;;;;;6274041;22;20035;-64
2022/01/18 07:06:37;;;;;;;15.05;5.22;;;;;;;;;;6270103;22;20022;-63
2022/01/18 07:09:03;;;;;;;10.65;5.03;;;;;;;;;;6274347;22;20531;-64
2022/01/18 07:11:29;;;;;;;10.52;5.53;;;;;;;;;;6271221;22;20031;-64
2022/01/18 07:13:55;;;;;;;14.13;5.32;;;;;;;;;;6273179;22;20000;-65
2022/01/18 07:16:21;;;;;;;11.45;4.68;;;;;;;;;;6274144;22;20000;-64
2022/01/18 07:18:47;;;;;;;8.77;4.72;;;;;;;;;;6272933;22;20028;-64
2022/01/18 07:21:14;;;;;;;9.25;4.95;;;;;;;;;;6271098;22;19996;-64
2022/01/18 07:23:40;;;;;;;6.57;4.30;;;;;;;;;;6271722;22;20030;-64
2022/01/18 07:26:06;;;;;;;11.77;4.97;;;;;;;;;;6272337;22;20073;-65
2022/01/18 07:28:33;;;;;;;8.52;4.38;;;;;;;;;;6271992;22;20080;-64
2022/01/18 07:31:00;;;;;;;11.57;4.90;;;;;;;;;;6272183;22;20023;-65
2022/01/18 07:33:26;;;;;;;8.25;4.30;;;;;;;;;;6272430;22;20081;-65
2022/01/18 07:35:52;;;;;;;11.40;5.55;;;;;;;;;;6272166;22;20338;-64
2022/01/18 07:38:18;;;;;;;10.43;5.18;;;;;;;;;;6272181;22;20027;-65
2022/01/18 07:40:48;;;;;;;11.52;4.75;;;;;;;;;;6271476;22;20020;-65
2022/01/18 07:43:17;;;;;;;13.35;5.20;;;;;;;;;;6272148;22;20432;-64
2022/01/18 07:45:44;;;;;;;14.80;5.18;;;;;;;;;;6271211;22;20446;-65
2022/01/18 07:48:10;;;;;;;7.90;4.28;;;;;;;;;;6271627;22;20016;-65
2022/01/18 07:50:36;;;;;;;10.68;5.25;;;;;;;;;;6275135;22;20003;-68
2022/01/18 07:53:03;;;;;;;12.35;4.72;;;;;;;;;;6271533;22;20073;-65
2022/01/18 07:55:29;;;;;;;15.90;4.57;;;;;;;;;;6271701;22;20007;-64
2022/01/18 07:57:57;;;;;;;10.32;4.80;;;;;;;;;;6269712;22;20079;-65
2022/01/18 08:00:24;;;;;;;8.82;4.30;;;;;;;;;;6272392;22;20117;-65
2022/01/18 08:02:50;;;;;;;12.07;4.72;;;;;;;;;;6272122;22;20038;-65
2022/01/18 08:05:16;;;;;;;13.25;4.63;;;;;;;;;;6271457;22;20602;-65
2022/01/18 08:07:42;;;;;;;9.18;4.63;;;;;;;;;;6269829;22;20004;-65
2022/01/18 08:10:09;;;;;;;8.90;3.60;;;;;;;;;;6272317;22;20031;-65
2022/01/18 08:12:39;;;;;;;10.57;4.13;;;;;;;;;;6273793;22;20423;-65
2022/01/18 08:15:13;;;;;;;10.10;4.97;;;;;;;;;;6268828;22;20008;-65
2022/01/18 08:17:40;;;;;;;13.47;4.83;;;;;;;;;;6269374;22;19999;-65
2022/01/18 08:20:07;;;;;;;6.82;3.67;;;;;;;;;;6270454;22;20301;-65
2022/01/18 08:22:33;;;;;;;8.77;4.40;;;;;;;;;;6263842;22;19996;-65
2022/01/18 08:24:59;;;;;;;7.35;3.55;;;;;;;;;;6263778;22;20078;-68
2022/01/18 08:27:26;;;;;;;8.20;4.13;;;;;;;;;;6265580;22;20464;-64
2022/01/18 08:29:52;;;;;;;11.50;3.85;;;;;;;;;;6268901;22;20003;-65
2022/01/18 08:32:18;;;;;;;8.27;4.10;;;;;;;;;;6266259;22;20098;-64
2022/01/18 08:34:44;;;;;;;9.98;4.13;;;;;;;;;;6262739;22;20011;-64
2022/01/18 08:37:11;;;;;;;13.40;4.53;;;;;;;;;;6263908;22;20008;-63
2022/01/18 08:39:37;;;;;;;11.85;4.05;;;;;;;;;;6263826;22;20004;-64
2022/01/18 08:42:04;;;;;;;10.68;3.83;;;;;;;;;;6265298;22;20003;-64
2022/01/18 08:44:30;;;;;;;8.65;3.90;;;;;;;;;;6263151;22;20393;-64
2022/01/18 08:46:56;;;;;;;9.15;5.63;;;;;;;;;;6263610;22;20415;-65
2022/01/18 08:49:22;;;;;;;9.98;4.43;;;;;;;;;;6265063;22;20004;-63
2022/01/18 08:51:48;;;;;;;9.77;4.07;;;;;;;;;;6266138;22;20082;-65
2022/01/18 08:54:14;;;;;;;9.75;3.90;;;;;;;;;;6266401;22;20033;-64
2022/01/18 08:56:40;;;;;;;10.90;4.35;;;;;;;;;;6266406;22;20003;-64
2022/01/18 08:59:06;;;;;;;5.63;3.60;;;;;;;;;;6266450;22;20004;-64
2022/01/18 09:01:32;;;;;;;16.65;4.97;;;;;;;;;;6266035;22;20007;-64
2022/01/18 09:04:01;;;;;;;8.45;4.18;;;;;;;;;;6265229;22;20003;-64
2022/01/18 09:06:29;;;;;;;10.15;4.22;;;;;;;;;;6265253;22;20533;-64
2022/01/18 09:08:56;;;;;;;10.43;4.28;;;;;;;;;;6264660;22;20011;-66
2022/01/18 09:11:29;;;;;;;6.05;4.35;;;;;;;;;;6267118;22;20085;-65
2022/01/18 09:13:55;;;;;;;10.60;4.97;;;;;;;;;;6266231;22;20014;-63
2022/01/18 09:16:21;;;;;;;8.63;4.25;;;;;;;;;;6266431;22;20046;-64
2022/01/18 09:18:48;;;;;;;11.05;4.55;;;;;;;;;;6266029;22;20457;-65
2022/01/18 09:21:14;;;;;;;6.65;4.18;;;;;;;;;;6263057;22;20014;-66
2022/01/18 09:23:42;;;;;;;16.27;5.43;;;;;;;;;;6267766;22;20030;-65
2022/01/18 09:26:08;;;;;;;8.10;4.57;;;;;;;;;;6262877;22;20089;-65
2022/01/18 09:28:34;;;;;;;9.55;4.10;;;;;;;;;;6267017;22;20000;-68
2022/01/18 09:31:00;;;;;;;10.32;4.28;;;;;;;;;;6264911;22;20031;-65
2022/01/18 09:33:26;;;;;;;11.52;3.67;;;;;;;;;;6265374;22;20007;-65
2022/01/18 09:35:52;;;;;;;18.02;4.13;;;;;;;;;;6264791;22;20157;-64
2022/01/18 09:38:18;;;;;;;6.90;4.07;;;;;;;;;;6264397;22;20003;-65
2022/01/18 09:40:45;;;;;;;6.60;3.67;;;;;;;;;;6264842;22;20007;-65
2022/01/18 09:43:14;;;;;;;21.08;9.35;;;;;;;;;;6267189;22;20010;-64
2022/01/18 09:45:41;;;;;;;22.98;9.90;;;;;;;;;;6265625;22;20388;-64
2022/01/18 09:48:08;;;;;;;20.73;9.38;;;;;;;;;;6267308;22;20029;-64
2022/01/18 09:50:35;;;;;;;22.95;9.80;;;;;;;;;;6266706;22;20008;-64
2022/01/18 09:53:01;;;;;;;21.40;11.73;;;;;;;;;;6266676;22;20061;-65
2022/01/18 09:55:30;;;;;;;18.65;9.07;;;;;;;;;;6266726;22;20458;-65
2022/01/18 09:57:57;;;;;;;23.63;10.70;;;;;;;;;;6267194;22;20027;-64
2022/01/18 10:00:25;;;;;;;11.98;6.57;;;;;;;;;;6263341;22;20007;-65
2022/01/18 10:02:51;;;;;;;12.13;6.57;;;;;;;;;;6260592;22;20003;-64
2022/01/18 10:05:29;;;;;;;8.30;5.00;;;;;;;;;;6259128;22;20667;-64
2022/01/18 10:08:01;;;;;;;10.18;4.45;;;;;;;;;;6261856;22;20277;-65
2022/01/18 10:10:41;;;;;;;6.70;4.65;;;;;;;;;;6262044;22;20010;-64
2022/01/18 10:13:08;;;;;;;7.20;4.13;;;;;;;;;;6266729;22;20027;-68
2022/01/18 10:15:35;;;;;;;7.90;3.15;;;;;;;;;;6264873;22;20014;-65
2022/01/18 10:18:09;;;;;;;11.25;4.15;;;;;;;;;;6262553;22;20430;-67
2022/01/18 10:20:48;;;;;;;7.25;3.30;;;;;;;;;;6264157;22;20027;-65
2022/01/18 10:23:21;;;;;;;9.10;3.40;;;;;;;;;;6263913;22;20513;-66
2022/01/18 10:25:48;;;;;;;10.40;3.85;;;;;;;;;;6262651;22;20003;-65
2022/01/18 10:28:34;;;;;;;7.05;3.92;;;;;;;;;;6261637;22;20107;-65
2022/01/18 10:31:04;;;;;;;;;;;;;;;;;;6264347;22;20011;-65
2022/01/18 10:33:36;;;;;;;5.85;4.78;;;;;;;;;;6260917;22;20292;-65
2022/01/18 10:36:07;;;;;;;8.02;4.68;;;;;;;;;;6263095;22;20037;-65
2022/01/18 10:38:33;;;;;;;9.98;3.60;;;;;;;;;;6263177;22;20007;-65
2022/01/18 10:41:19;;;;;;;10.55;3.88;;;;;;;;;;6263314;22;19996;-69
2022/01/18 10:43:45;;;;;;;;;;;;;;;;;;6263815;22;20000;-65
2022/01/18 10:46:11;;;;;;;;;;;;;;;;;;6264760;22;19910;-65
2022/01/18 10:48:45;;;;;;;6.65;2.90;;;;;;;;;;6263834;22;19910;-65
2022/01/18 10:51:31;;;;;;;9.43;3.50;;;;;;;;;;6263045;22;20003;-63
2022/01/18 10:53:59;;;;;;;7.07;3.60;;;;;;;;;;6262778;22;20065;-64
2022/01/18 10:56:25;;;;;;;7.82;3.72;;;;;;;;;;6263303;22;20428;-64
2022/01/18 10:58:55;;;;;;;8.95;4.03;;;;;;;;;;6262953;22;20007;-65
2022/01/18 11:01:22;;;;;;;9.38;3.58;;;;;;;;;;6263851;22;20004;-66
2022/01/18 11:04:08;;;;;;;9.23;3.60;;;;;;;;;;6261586;22;20050;-65
2022/01/18 11:06:35;;;;;;;6.70;3.25;;;;;;;;;;6263304;22;20011;-64
2022/01/18 11:09:28;;;;;;;6.28;3.40;;;;;;;;;;6262914;22;20098;-66
2022/01/18 11:11:54;;;;;;;21.25;8.82;;;;;;;;;;6260969;22;20617;-65
2022/01/18 11:14:22;;;;;;;18.60;6.95;;;;;;;;;;6264970;22;20042;-66
2022/01/18 11:16:49;;;;;;;18.33;9.10;;;;;;;;;;6265673;22;20008;-66
2022/01/18 11:21:52;;;;;;;18.73;6.85;;;;;;;;;;6266357;22;20425;-65
2022/01/18 11:24:19;;;;;;;9.93;4.80;;;;;;;;;;6261186;22;20015;-65
2022/01/18 11:26:46;;;;;;;6.93;3.75;;;;;;;;;;6262579;22;20008;-65
2022/01/18 11:29:15;;;;;;;7.82;3.97;;;;;;;;;;6265643;22;20083;-65
2022/01/18 11:31:42;;;;;;;13.40;4.72;;;;;;;;;;6264196;22;20008;-65
2022/01/18 11:34:10;;;;;;;8.90;3.80;;;;;;;;;;6265457;22;20008;-66
2022/01/18 11:36:40;;;;;;;8.00;4.70;;;;;;;;;;6263331;22;20091;-65
2022/01/18 11:39:08;;;;;;;12.30;4.00;;;;;;;;;;6264587;22;20744;-65
2022/01/18 11:41:35;;;;;;;7.82;5.03;;;;;;;;;;6263659;22;20551;-65
2022/01/18 11:44:16;;;;;;;8.55;3.72;;;;;;;;;;6263880;22;20010;-64
2022/01/18 11:46:50;;;;;;;5.00;3.30;;;;;;;;;;6264730;22;20015;-66
2022/01/18 11:49:21;;;;;;;5.65;3.92;;;;;;;;;;6264757;22;20004;-65
2022/01/18 11:51:54;;;;;;;9.93;4.13;;;;;;;;;;6263986;22;20122;-66
2022/01/18 11:57:02;;;;;;;11.07;4.32;;;;;;;;;;6264854;22;20055;-65
2022/01/18 11:59:36;;;;;;;5.82;3.53;;;;;;;;;;6264773;22;20003;-64
2022/01/18 12:02:04;;;;;;;12.80;4.68;;;;;;;;;;6265241;22;20058;-65
2022/01/18 12:04:46;;;;;;;6.93;4.30;;;;;;;;;;6264913;22;20088;-65
2022/01/18 12:07:31;;;;;;;7.47;3.95;;;;;;;;;;6264707;22;20004;-65
2022/01/18 12:09:57;;;;;;;6.75;3.50;;;;;;;;;;6263741;22;20450;-66
2022/01/18 12:12:44;;;;;;;4.28;3.22;;;;;;;;;;6266241;22;20442;-66
2022/01/18 12:15:16;;;;;;;6.43;4.05;;;;;;;;;;6266272;22;20533;-69
2022/01/18 12:17:48;;;;;;;7.07;3.45;;;;;;;;;;6272141;22;19999;-67
2022/01/18 12:20:40;;;;;;;5.57;3.50;;;;;;;;;;6270034;22;20415;-66
2022/01/18 12:23:10;;;;;;;7.88;3.60;;;;;;;;;;6254868;22;20008;-67
2022/01/18 12:25:56;;;;;;;7.35;3.20;;;;;;;;;;6268602;22;20004;-66
2022/01/18 12:31:40;;;;;;;8.50;3.70;;;;;;;;;;6265959;22;20074;-65
2022/01/18 12:34:30;;;;;;;6.88;3.33;;;;;;;;;;6267249;22;20098;-66
2022/01/18 12:37:08;;;;;;;8.20;4.18;;;;;;;;;;6246594;22;20319;-65
2022/01/18 12:39:57;;;;;;;6.78;4.10;;;;;;;;;;6268223;22;20048;-66
2022/01/18 12:45:06;;;;;;;6.97;3.97;;;;;;;;;;6266961;22;20438;-66
2022/01/18 12:47:36;;;;;;;4.88;3.03;;;;;;;;;;6267018;22;20011;-68
2022/01/18 12:50:03;;;;;;;5.03;3.50;;;;;;;;;;6266813;22;20007;-65
2022/01/18 12:52:48;;;;;;;6.20;4.05;;;;;;;;;;6265903;22;20053;-68
2022/01/18 12:55:35;;;;;;;10.97;4.00;;;;;;;;;;6262738;22;20375;-67
2022/01/18 12:58:19;;;;;;;5.85;3.53;;;;;;;;;;6263469;22;20023;-66
2022/01/18 13:00:53;;;;;;;11.35;3.75;;;;;;;;;;6260515;22;20022;-65
2022/01/18 13:03:29;;;;;;;6.50;4.03;;;;;;;;;;6262287;22;20024;-65
2022/01/18 13:05:59;;;;;;;4.78;2.97;;;;;;;;;;6261655;22;20382;-66
2022/01/18 13:08:38;;;;;;;8.80;3.38;;;;;;;;;;6261315;22;20098;-65
2022/01/18 13:11:04;;;;;;;7.15;3.58;;;;;;;;;;6264040;22;20019;-67
2022/01/18 13:13:31;;;;;;;5.07;3.40;;;;;;;;;;6263336;22;20350;-63
2022/01/18 13:26:55;;;;;;;6.75;3.47;;;;;;;;;;6272589;22;20012;-65
2022/01/18 13:29:26;;;;;;;7.38;3.38;;;;;;;;;;6262906;22;20018;-65
2022/01/18 13:32:11;;;;;;;5.47;3.20;;;;;;;;;;6264348;22;20004;-64
2022/01/18 13:34:39;;;;;;;10.10;4.85;;;;;;;;;;6263089;22;20031;-65
2022/01/18 13:37:09;;;;;;;11.55;4.22;;;;;;;;;;6263338;22;20004;-67
2022/01/18 13:39:39;;;;;;;8.80;4.40;;;;;;;;;;6262558;22;20003;-67
2022/01/18 13:42:06;;;;;;;6.80;3.88;;;;;;;;;;6262722;22;20027;-65
2022/01/18 13:44:33;;;;;;;7.63;4.10;;;;;;;;;;6261347;22;20012;-66
2022/01/18 13:47:16;;;;;;;6.72;3.60;;;;;;;;;;6263573;22;20439;-66
2022/01/18 13:49:42;;;;;;;7.32;3.85;;;;;;;;;;6261079;22;20347;-65
2022/01/18 13:52:09;;;;;;;7.00;3.72;;;;;;;;;;6264443;22;20138;-64
2022/01/18 13:54:45;;;;;;;5.45;3.92;;;;;;;;;;6266770;22;20073;-66
2022/01/18 13:57:12;;;;;;;9.30;4.45;;;;;;;;;;6262583;22;20014;-66
2022/01/18 13:59:38;;;;;;;7.70;4.00;;;;;;;;;;6260322;22;20007;-64
2022/01/18 14:02:15;;;;;;;8.70;4.05;;;;;;;;;;6262583;22;20015;-65
2022/01/18 14:04:41;;;;;;;6.07;3.70;;;;;;;;;;6265136;22;20007;-64
2022/01/18 14:07:08;;;;;;;5.40;4.05;;;;;;;;;;6262916;22;20004;-65
2022/01/18 14:09:34;;;;;;;12.88;7.47;;;;;;;;;;6264793;22;20004;-64
2022/01/18 14:12:00;;;;;;;11.52;5.30;;;;;;;;;;6266009;22;20015;-64
2022/01/18 14:14:29;;;;;;;9.05;5.22;;;;;;;;;;6264769;22;20028;-65
2022/01/18 14:16:59;;;;;;;10.77;6.65;;;;;;;;;;6264078;22;20075;-64
2022/01/18 14:19:28;;;;;;;11.82;6.10;;;;;;;;;;6264515;22;20065;-64
2022/01/18 14:21:55;;;;;;;6.03;3.80;;;;;;;;;;6263156;22;20000;-64
2022/01/18 14:24:25;;;;;;;6.03;4.85;;;;;;;;;;6264749;22;20065;-64
2022/01/18 14:26:51;;;;;;;6.05;3.85;;;;;;;;;;6263958;22;20075;-65
2022/01/18 14:29:18;;;;;;;5.43;3.50;;;;;;;;;;6263213;22;20014;-65
2022/01/18 14:31:56;;;;;;;6.32;3.78;;;;;;;;;;6264606;22;20004;-64
2022/01/18 14:34:29;;;;;;;7.75;4.30;;;;;;;;;;6264520;22;20293;-65
2022/01/18 14:36:55;;;;;;;9.32;4.28;;;;;;;;;;6263472;22;20010;-64
2022/01/18 14:39:22;;;;;;;11.07;5.28;;;;;;;;;;6262336;22;20934;-65
2022/01/18 14:41:50;;;;;;;11.75;5.93;;;;;;;;;;6259422;22;20007;-65
2022/01/18 14:44:34;;;;;;;8.35;5.55;;;;;;;;;;6257741;22;20031;-64
2022/01/18 14:49:45;;;;;;;11.87;6.37;;;;;;;;;;6259858;22;20084;-64
2022/01/18 14:52:11;;;;;;;11.70;5.18;;;;;;;;;;6256065;22;20007;-64
2022/01/18 14:54:38;;;;;;;10.60;5.40;;;;;;;;;;6257319;22;20345;-65
2022/01/18 14:57:04;;;;;;;10.45;4.78;;;;;;;;;;6257213;22;20014;-65
2022/01/18 14:59:30;;;;;;;9.98;4.25;;;;;;;;;;6256271;22;20052;-64
2022/01/18 15:01:57;;;;;;;10.63;6.75;;;;;;;;;;6256091;22;20065;-64
2022/01/18 15:04:25;;;;;;;10.98;4.93;;;;;;;;;;6258622;22;20008;-65
2022/01/18 15:06:51;;;;;;;8.45;4.93;;;;;;;;;;6257000;22;20885;-65
2022/01/18 15:09:18;;;;;;;9.82;4.95;;;;;;;;;;6258873;22;20466;-65
2022/01/18 15:11:44;;;;;;;11.93;6.82;;;;;;;;;;6258678;22;20786;-65
2022/01/18 15:14:10;;;;;;;7.95;5.43;;;;;;;;;;6254673;22;20893;-66
2022/01/18 15:16:36;;;;;;;13.15;6.75;;;;;;;;;;6257499;22;20091;-66
2022/01/18 15:19:02;;;;;;;11.07;5.72;;;;;;;;;;6258972;22;20004;-66
2022/01/18 15:21:28;;;;;;;15.57;6.85;;;;;;;;;;6254346;22;20655;-66
2022/01/18 15:23:54;;;;;;;9.35;4.88;;;;;;;;;;6256038;22;20122;-66
2022/01/18 15:26:20;;;;;;;9.65;6.22;;;;;;;;;;6254966;22;20004;-66
2022/01/18 15:28:46;;;;;;;12.52;7.07;;;;;;;;;;6255059;22;20439;-65
2022/01/18 15:31:13;;;;;;;17.00;8.95;;;;;;;;;;6253277;22;20007;-65
2022/01/18 15:33:39;;;;;;;10.38;6.38;;;;;;;;;;6254469;22;20018;-64
2022/01/18 15:36:05;;;;;;;11.18;6.82;;;;;;;;;;6256764;22;20086;-65
2022/01/18 15:38:31;;;;;;;47.63;19.05;;;;;;;;;;6259837;22;20041;-65
2022/01/18 15:40:58;;;;;;;20.05;10.55;;;;;;;;;;6260248;22;19999;-65
2022/01/18 15:43:24;;;;;;;10.55;5.90;;;;;;;;;;6258848;22;20014;-65
2022/01/18 15:45:50;;;;;;;14.32;4.63;;;;;;;;;;6261147;22;20018;-65
2022/01/18 15:48:17;;;;;;;35.67;14.93;;;;;;;;;;6262830;22;20057;-65
2022/01/18 15:50:43;;;;;;;36.10;16.45;;;;;;;;;;6263753;22;20014;-65
2022/01/18 15:53:09;;;;;;;10.82;6.10;;;;;;;;;;6260570;22;20073;-65
2022/01/18 15:55:36;;;;;;;33.75;15.07;;;;;;;;;;6258642;22;20004;-65
2022/01/18 15:58:02;;;;;;;19.58;9.45;;;;;;;;;;6258496;22;20052;-67
2022/01/18 16:00:29;;;;;;;9.18;6.40;;;;;;;;;;6259948;22;20069;-66
2022/01/18 16:02:55;;;;;;;9.10;4.50;;;;;;;;;;6257416;22;20007;-65
2022/01/18 16:05:21;;;;;;;8.68;4.53;;;;;;;;;;6260977;22;20007;-66
2022/01/18 16:07:47;;;;;;;10.05;6.30;;;;;;;;;;6260487;22;20071;-66
2022/01/18 16:10:14;;;;;;;11.70;6.60;;;;;;;;;;6258631;22;20510;-64
2022/01/18 16:12:40;;;;;;;8.77;6.10;;;;;;;;;;6261090;22;20081;-65
2022/01/18 16:15:06;;;;;;;9.07;6.75;;;;;;;;;;6262575;22;20124;-65